Time;durP1;ratioP1;P1;durP2;ratioP2;P2;SDS_P1;SDS_P2;PMS_P1;PMS_P2;Temp;Humidity;BMP_temperature;BMP_pressure;BME280_temperature;BME280_humidity;BME280_pressure;Samples;Min_cycle;Max_cycle;Signal;HPM_P1;HPM_P2
2023/10/14 00:02:52;;;;;;;;;;;21.10;68.30;;;;;;10161223;28;94326;-69
2023/10/14 00:07:54;;;;;;;;;;;21.10;67.90;;;;;;10157017;28;93722;-69
2023/10/14 00:12:55;;;;;;;;;;;21.10;67.50;;;;;;10163505;28;94761;-69
2023/10/14 00:17:59;;;;;;;;;;;21.10;67.30;;;;;;10162394;28;94646;-69
2023/10/14 00:23:02;;;;;;;;;;;21.10;67.00;;;;;;10160916;28;93802;-69
2023/10/14 00:28:12;;;;;;;;;;;21.10;66.50;;;;;;10162238;28;94688;-69
2023/10/14 00:33:14;;;;;;;;;;;21.10;66.30;;;;;;10142937;28;94391;-69
2023/10/14 00:38:16;;;;;;;;;;;21.10;65.90;;;;;;10138340;28;94444;-69
2023/10/14 00:43:20;;;;;;;;;;;21.10;66.10;;;;;;10146135;28;94394;-69
2023/10/14 00:48:27;;;;;;;;;;;21.10;65.40;;;;;;10158665;28;96962;-69
2023/10/14 00:53:29;;;;;;;;;;;21.10;65.30;;;;;;10160656;28;93474;-69
2023/10/14 00:58:31;;;;;;;;;;;21.10;64.90;;;;;;10146179;28;94400;-69
2023/10/14 01:03:34;;;;;;;;;;;21.10;64.70;;;;;;10557168;22;93457;-51
2023/10/14 01:08:42;;;;;;;;;;;21.10;64.40;;;;;;10227848;28;93617;-51
2023/10/14 01:13:45;;;;;;;;;;;21.10;64.40;;;;;;10239761;28;93419;-51
2023/10/14 01:18:47;;;;;;;;;;;21.10;64.10;;;;;;10239181;28;94417;-52
2023/10/14 01:23:58;;;;;;;;;;;21.10;63.80;;;;;;10249669;28;93697;-50
2023/10/14 01:29:00;;;;;;;;;;;21.10;63.80;;;;;;10245023;28;93113;-51
2023/10/14 01:34:05;;;;;;;;;;;21.00;63.50;;;;;;10226715;28;93373;-51
2023/10/14 01:39:13;;;;;;;;;;;21.00;63.40;;;;;;10235095;28;95915;-51
2023/10/14 01:44:21;;;;;;;;;;;21.00;63.20;;;;;;10222892;28;93883;-50
2023/10/14 01:49:25;;;;;;;;;;;21.00;62.90;;;;;;10242540;28;94668;-53
2023/10/14 01:54:27;;;;;;;;;;;21.00;62.80;;;;;;10237021;28;94568;-53
2023/10/14 01:59:29;;;;;;;;;;;21.00;62.70;;;;;;10226973;28;94409;-53
2023/10/14 02:04:31;;;;;;;;;;;21.00;62.50;;;;;;10235966;28;93444;-53
2023/10/14 02:09:33;;;;;;;;;;;21.00;63.30;;;;;;10223968;28;94943;-49
2023/10/14 02:14:36;;;;;;;;;;;20.90;62.10;;;;;;10239987;28;93882;-52
2023/10/14 02:19:37;;;;;;;;;;;20.90;61.90;;;;;;10222746;28;94758;-51
2023/10/14 02:24:40;;;;;;;;;;;20.90;61.90;;;;;;10234362;28;94853;-51
2023/10/14 02:29:45;;;;;;;;;;;20.90;61.70;;;;;;10231513;28;96886;-49
2023/10/14 02:34:47;;;;;;;;;;;20.90;61.50;;;;;;10231439;28;94406;-49
2023/10/14 02:39:50;;;;;;;;;;;20.90;61.30;;;;;;10228595;28;94296;-53
2023/10/14 02:44:53;;;;;;;;;;;20.90;61.20;;;;;;10233235;28;94609;-53
2023/10/14 02:50:05;;;;;;;;;;;20.90;61.10;;;;;;10235700;28;93934;-51
2023/10/14 02:55:25;;;;;;;;;;;20.90;60.90;;;;;;10241920;28;93052;-48
2023/10/14 03:00:30;;;;;;;;;;;20.90;60.90;;;;;;10244388;28;94498;-49
2023/10/14 03:05:33;;;;;;;;;;;20.80;60.70;;;;;;10232109;28;92985;-52
2023/10/14 03:10:39;;;;;;;;;;;20.80;60.70;;;;;;10234434;28;94552;-56
2023/10/14 03:15:44;;;;;;;;;;;20.80;60.40;;;;;;10223511;28;93017;-48
2023/10/14 03:26:13;;;;;;;;;;;20.80;60.40;;;;;;10239927;28;94463;-51
2023/10/14 03:31:16;;;;;;;;;;;20.80;60.00;;;;;;10241637;28;94406;-51
2023/10/14 03:36:23;;;;;;;;;;;20.80;60.00;;;;;;10230741;28;94225;-50
2023/10/14 03:41:29;;;;;;;;;;;20.80;59.80;;;;;;10242183;28;93504;-53
2023/10/14 03:46:43;;;;;;;;;;;20.80;59.80;;;;;;10242870;28;94129;-52
2023/10/14 03:51:51;;;;;;;;;;;20.80;59.60;;;;;;10214384;28;94765;-53
2023/10/14 03:56:53;;;;;;;;;;;20.80;59.40;;;;;;10228980;28;93643;-52
2023/10/14 04:01:57;;;;;;;;;;;20.90;59.30;;;;;;10241091;28;94090;-52
2023/10/14 04:12:07;;;;;;;;;;;20.80;59.00;;;;;;10236800;28;96811;-52
2023/10/14 04:17:21;;;;;;;;;;;20.80;59.00;;;;;;10238546;28;94935;-46
2023/10/14 04:22:32;;;;;;;;;;;20.80;58.70;;;;;;10237025;28;95457;-50
2023/10/14 04:27:45;;;;;;;;;;;20.80;58.60;;;;;;10233744;28;93940;-48
2023/10/14 04:38:12;;;;;;;;;;;20.80;58.30;;;;;;10233409;28;94700;-50
2023/10/14 04:48:35;;;;;;;;;;;20.80;58.10;;;;;;10227884;28;92817;-50
2023/10/14 04:53:43;;;;;;;;;;;20.80;58.10;;;;;;10237946;28;94579;-51
2023/10/14 04:58:46;;;;;;;;;;;20.80;58.00;;;;;;10230119;28;94625;-51
2023/10/14 05:03:47;;;;;;;;;;;20.80;57.90;;;;;;10217279;28;97118;-49
2023/10/14 05:08:54;;;;;;;;;;;20.80;57.60;;;;;;10230091;28;94301;-47
2023/10/14 05:14:08;;;;;;;;;;;20.70;57.70;;;;;;10227829;28;94870;-47
2023/10/14 05:19:14;;;;;;;;;;;20.70;57.70;;;;;;10239024;28;93751;-51
2023/10/14 05:24:16;;;;;;;;;;;20.70;57.80;;;;;;10219452;28;92532;-51
2023/10/14 05:29:18;;;;;;;;;;;20.70;57.60;;;;;;10224175;28;94462;-51
2023/10/14 05:34:26;;;;;;;;;;;20.70;57.50;;;;;;10228535;28;93512;-47
2023/10/14 05:39:28;;;;;;;;;;;20.70;57.60;;;;;;10247303;28;93643;-52
2023/10/14 05:44:30;;;;;;;;;;;20.70;57.50;;;;;;10227013;28;94465;-49
2023/10/14 05:49:32;;;;;;;;;;;20.70;58.50;;;;;;10243111;28;94688;-48
2023/10/14 05:54:34;;;;;;;;;;;20.70;57.60;;;;;;10234586;28;96703;-55
2023/10/14 05:59:37;;;;;;;;;;;20.70;57.50;;;;;;10241833;28;94383;-52
2023/10/14 06:04:42;;;;;;;;;;;20.70;57.60;;;;;;10246056;28;93871;-50
2023/10/14 06:09:47;;;;;;;;;;;20.70;57.80;;;;;;10213378;28;93197;-51
2023/10/14 06:14:50;;;;;;;;;;;20.70;57.70;;;;;;10201353;28;94796;-51
2023/10/14 06:19:53;;;;;;;;;;;20.70;57.90;;;;;;10244208;28;94380;-51
2023/10/14 06:24:55;;;;;;;;;;;20.70;57.80;;;;;;10234393;28;94656;-51
2023/10/14 06:29:57;;;;;;;;;;;20.70;57.90;;;;;;10239791;28;92799;-51
2023/10/14 06:34:59;;;;;;;;;;;20.70;58.00;;;;;;10239661;28;95664;-51
2023/10/14 06:40:01;;;;;;;;;;;20.70;58.10;;;;;;10235228;28;93159;-50
2023/10/14 06:45:05;;;;;;;;;;;20.70;58.00;;;;;;10217273;28;97041;-51
2023/10/14 06:50:12;;;;;;;;;;;20.70;58.00;;;;;;10239737;28;94479;-51
2023/10/14 06:55:21;;;;;;;;;;;20.70;58.10;;;;;;10216316;28;93348;-52
2023/10/14 07:00:26;;;;;;;;;;;20.70;58.00;;;;;;10238608;28;95099;-53
2023/10/14 07:05:28;;;;;;;;;;;20.70;57.90;;;;;;10242201;28;93419;-47
2023/10/14 07:10:33;;;;;;;;;;;20.70;57.60;;;;;;10234013;28;95846;-50
2023/10/14 07:15:35;;;;;;;;;;;20.70;57.60;;;;;;10231247;28;94168;-47
2023/10/14 07:20:39;;;;;;;;;;;20.70;59.30;;;;;;10236732;28;93703;-48
2023/10/14 07:25:41;;;;;;;;;;;20.70;59.80;;;;;;10235272;28;94649;-47
2023/10/14 07:30:46;;;;;;;;;;;20.80;60.00;;;;;;10228178;28;94504;-49
2023/10/14 07:35:48;;;;;;;;;;;20.80;60.00;;;;;;10220143;28;96873;-47
2023/10/14 07:40:50;;;;;;;;;;;20.80;59.90;;;;;;10227540;28;93509;-49
2023/10/14 07:45:52;;;;;;;;;;;20.70;59.80;;;;;;10214912;28;93890;-46
2023/10/14 07:50:56;;;;;;;;;;;20.70;59.70;;;;;;10239392;28;94066;-51
2023/10/14 07:55:58;;;;;;;;;;;20.70;60.00;;;;;;10239139;28;93463;-49
2023/10/14 08:01:06;;;;;;;;;;;20.60;60.00;;;;;;10231834;28;94044;-50
2023/10/14 08:06:08;;;;;;;;;;;20.60;60.00;;;;;;10243822;28;94355;-51
2023/10/14 08:11:12;;;;;;;;;;;20.60;60.10;;;;;;10232254;28;93348;-48
2023/10/14 08:16:15;;;;;;;;;;;20.60;60.20;;;;;;10232057;28;94496;-51
2023/10/14 08:21:17;;;;;;;;;;;20.60;60.40;;;;;;10242071;28;93464;-49
2023/10/14 08:26:20;;;;;;;;;;;20.60;60.40;;;;;;10235751;28;96015;-45
2023/10/14 08:31:22;;;;;;;;;;;20.60;60.50;;;;;;10227419;28;93466;-47
2023/10/14 08:36:26;;;;;;;;;;;20.60;60.60;;;;;;10238319;28;94247;-49
2023/10/14 08:41:30;;;;;;;;;;;20.60;60.50;;;;;;10225027;28;93581;-47
2023/10/14 08:46:35;;;;;;;;;;;20.60;60.60;;;;;;10235204;28;94738;-48
2023/10/14 08:51:39;;;;;;;;;;;20.60;60.60;;;;;;10237949;28;94533;-49
2023/10/14 08:56:55;;;;;;;;;;;20.60;60.60;;;;;;10228165;28;95432;-47
2023/10/14 09:01:57;;;;;;;;;;;20.70;60.50;;;;;;10220275;28;93821;-50
2023/10/14 09:07:02;;;;;;;;;;;20.70;60.50;;;;;;10229466;28;94421;-47
2023/10/14 09:12:11;;;;;;;;;;;20.70;60.40;;;;;;10233580;28;94415;-49
2023/10/14 09:17:15;;;;;;;;;;;20.70;60.40;;;;;;10229142;28;96114;-51
2023/10/14 09:22:22;;;;;;;;;;;20.70;60.50;;;;;;10235499;28;95080;-49
2023/10/14 09:27:25;;;;;;;;;;;20.80;60.40;;;;;;10247625;28;94562;-47
2023/10/14 09:32:27;;;;;;;;;;;20.80;60.50;;;;;;10236460;28;94432;-50
2023/10/14 09:37:29;;;;;;;;;;;20.90;60.50;;;;;;10239373;28;94159;-49
2023/10/14 09:42:32;;;;;;;;;;;20.90;60.30;;;;;;10241488;28;94659;-50
2023/10/14 09:47:34;;;;;;;;;;;20.90;60.30;;;;;;10236421;28;93664;-48
2023/10/14 09:52:39;;;;;;;;;;;21.00;60.30;;;;;;10248164;28;93875;-50
2023/10/14 09:57:45;;;;;;;;;;;21.00;60.10;;;;;;10243068;28;94429;-50
2023/10/14 10:02:48;;;;;;;;;;;21.00;60.10;;;;;;10247891;28;94479;-52
2023/10/14 10:08:02;;;;;;;;;;;21.00;60.10;;;;;;10240781;28;97613;-51
2023/10/14 10:13:05;;;;;;;;;;;21.00;60.10;;;;;;10202107;28;94455;-48
2023/10/14 10:18:12;;;;;;;;;;;21.10;60.10;;;;;;10224092;28;93786;-49
2023/10/14 10:23:15;;;;;;;;;;;21.10;60.10;;;;;;10225973;28;94832;-48
2023/10/14 10:28:23;;;;;;;;;;;21.10;60.10;;;;;;10238875;28;93595;-46
2023/10/14 10:33:45;;;;;;;;;;;21.10;60.10;;;;;;10240039;28;94897;-49
2023/10/14 10:38:46;;;;;;;;;;;21.10;60.00;;;;;;10233304;28;93357;-46
2023/10/14 10:43:48;;;;;;;;;;;21.10;60.00;;;;;;10239645;28;92708;-48
2023/10/14 10:48:50;;;;;;;;;;;21.10;60.00;;;;;;10212596;28;94886;-48
2023/10/14 10:53:52;;;;;;;;;;;21.10;60.00;;;;;;10211774;28;94458;-46
2023/10/14 10:58:54;;;;;;;;;;;21.10;60.10;;;;;;10235610;28;95557;-51
2023/10/14 11:03:57;;;;;;;;;;;21.10;60.40;;;;;;10235282;28;94141;-49
2023/10/14 11:08:59;;;;;;;;;;;21.10;60.20;;;;;;10221792;28;94583;-51
2023/10/14 11:14:14;;;;;;;;;;;21.10;60.20;;;;;;10225272;28;94566;-47
2023/10/14 11:19:16;;;;;;;;;;;21.10;60.10;;;;;;10228546;28;92648;-48
2023/10/14 11:24:18;;;;;;;;;;;21.10;60.40;;;;;;10236079;28;93419;-47
2023/10/14 11:29:24;;;;;;;;;;;21.10;57.70;;;;;;10221555;28;94344;-50
2023/10/14 11:34:33;;;;;;;;;;;21.10;58.10;;;;;;10238473;28;93715;-47
2023/10/14 11:39:36;;;;;;;;;;;21.00;58.00;;;;;;10242151;28;92541;-48
2023/10/14 11:44:38;;;;;;;;;;;21.00;58.20;;;;;;10243359;28;94540;-51
2023/10/14 11:49:46;;;;;;;;;;;21.00;58.40;;;;;;10219305;28;97133;-51
2023/10/14 11:54:48;;;;;;;;;;;21.00;58.20;;;;;;10232465;28;93102;-50
2023/10/14 11:59:50;;;;;;;;;;;21.00;58.40;;;;;;10242020;28;93201;-48
2023/10/14 12:04:52;;;;;;;;;;;21.00;58.40;;;;;;10218979;28;94870;-48
2023/10/14 12:09:57;;;;;;;;;;;21.00;58.50;;;;;;10228983;28;95157;-50
2023/10/14 12:14:59;;;;;;;;;;;21.00;58.70;;;;;;10236361;28;94602;-49
2023/10/14 12:20:06;;;;;;;;;;;21.00;58.60;;;;;;10241667;28;94351;-46
2023/10/14 12:25:08;;;;;;;;;;;21.00;58.80;;;;;;10233968;28;92677;-45
2023/10/14 12:30:28;;;;;;;;;;;20.90;58.70;;;;;;10238024;28;94833;-47
2023/10/14 12:35:32;;;;;;;;;;;20.90;58.90;;;;;;10241154;28;94537;-50
2023/10/14 12:40:36;;;;;;;;;;;20.90;59.10;;;;;;10237189;28;97291;-49
2023/10/14 12:45:38;;;;;;;;;;;20.80;59.10;;;;;;10239808;28;93740;-49
2023/10/14 12:50:40;;;;;;;;;;;20.80;59.10;;;;;;10240787;28;94088;-50
2023/10/14 12:55:44;;;;;;;;;;;20.80;59.20;;;;;;10231146;28;94435;-47
2023/10/14 13:00:46;;;;;;;;;;;20.80;59.10;;;;;;10239796;28;94682;-46
2023/10/14 13:05:48;;;;;;;;;;;20.70;59.10;;;;;;10207017;28;94472;-50
2023/10/14 13:10:50;;;;;;;;;;;20.70;59.40;;;;;;10245070;28;94607;-49
2023/10/14 13:15:54;;;;;;;;;;;20.70;59.30;;;;;;10234979;28;92763;-46
2023/10/14 13:20:58;;;;;;;;;;;20.70;59.20;;;;;;10222402;28;94722;-48
2023/10/14 13:26:00;;;;;;;;;;;20.70;59.30;;;;;;10235461;28;94736;-49
2023/10/14 13:31:04;;;;;;;;;;;20.70;59.30;;;;;;10225713;28;97176;-46
2023/10/14 13:36:09;;;;;;;;;;;20.70;59.40;;;;;;10228610;28;93449;-46
2023/10/14 13:41:14;;;;;;;;;;;20.70;59.40;;;;;;10222170;28;92877;-48
2023/10/14 13:46:17;;;;;;;;;;;20.70;59.50;;;;;;10239093;28;93446;-51
2023/10/14 13:51:19;;;;;;;;;;;20.80;59.40;;;;;;10229438;28;94101;-51
2023/10/14 13:56:21;;;;;;;;;;;20.80;59.40;;;;;;10223790;28;94608;-52
2023/10/14 14:01:23;;;;;;;;;;;20.70;59.30;;;;;;10234168;28;93436;-49
2023/10/14 14:06:28;;;;;;;;;;;20.70;59.30;;;;;;10222575;28;94264;-48
2023/10/14 14:11:31;;;;;;;;;;;20.70;59.30;;;;;;10223324;28;93524;-48
2023/10/14 14:16:36;;;;;;;;;;;20.70;59.30;;;;;;10231499;28;93452;-46
2023/10/14 14:21:43;;;;;;;;;;;20.70;59.20;;;;;;10218753;28;97075;-45
2023/10/14 14:26:45;;;;;;;;;;;20.70;59.30;;;;;;10232311;28;94798;-49
2023/10/14 14:31:49;;;;;;;;;;;20.70;59.30;;;;;;10220949;28;92879;-49
2023/10/14 14:36:51;;;;;;;;;;;20.70;59.40;;;;;;10222639;28;96177;-47
2023/10/14 14:42:00;;;;;;;;;;;20.70;59.40;;;;;;10222928;28;94427;-47
2023/10/14 14:47:02;;;;;;;;;;;20.70;59.30;;;;;;10253403;28;93487;-47
2023/10/14 14:52:05;;;;;;;;;;;20.70;59.20;;;;;;10240068;28;94458;-47
2023/10/14 14:57:08;;;;;;;;;;;20.70;59.30;;;;;;10228804;28;92607;-50
2023/10/14 15:02:10;;;;;;;;;;;20.70;59.20;;;;;;10230266;28;93694;-49
2023/10/14 15:07:12;;;;;;;;;;;20.70;59.10;;;;;;10233207;28;94425;-45
2023/10/14 15:12:14;;;;;;;;;;;20.70;59.10;;;;;;10229204;28;96380;-50
2023/10/14 15:17:16;;;;;;;;;;;20.60;59.00;;;;;;10225619;28;94218;-49
2023/10/14 15:22:18;;;;;;;;;;;20.60;58.90;;;;;;10233152;28;94630;-48
2023/10/14 15:27:20;;;;;;;;;;;20.60;59.00;;;;;;10237906;28;94333;-47
2023/10/14 15:32:22;;;;;;;;;;;20.60;58.90;;;;;;10228207;28;95769;-48
2023/10/14 15:37:26;;;;;;;;;;;20.60;59.00;;;;;;10213557;28;93535;-45
2023/10/14 15:42:28;;;;;;;;;;;20.60;58.90;;;;;;10242603;28;95170;-49
2023/10/14 15:47:30;;;;;;;;;;;20.50;58.80;;;;;;10245149;28;94390;-49
2023/10/14 15:52:32;;;;;;;;;;;20.50;58.80;;;;;;10243585;28;94729;-50
2023/10/14 15:57:34;;;;;;;;;;;20.50;58.90;;;;;;10226943;28;93378;-50
2023/10/14 16:02:36;;;;;;;;;;;20.50;58.90;;;;;;10227466;28;97320;-47
2023/10/14 16:07:38;;;;;;;;;;;20.50;58.90;;;;;;10221056;28;94053;-49
2023/10/14 16:12:40;;;;;;;;;;;20.50;59.00;;;;;;10229128;28;93651;-48
2023/10/14 16:17:43;;;;;;;;;;;20.50;59.00;;;;;;10226778;28;94600;-49
2023/10/14 16:22:45;;;;;;;;;;;20.40;58.90;;;;;;10202017;28;94507;-48
2023/10/14 16:27:49;;;;;;;;;;;20.40;58.90;;;;;;10210554;28;93427;-49
2023/10/14 16:32:51;;;;;;;;;;;20.40;59.30;;;;;;10220353;28;93015;-45
2023/10/14 16:37:56;;;;;;;;;;;20.50;59.40;;;;;;10236322;28;93814;-50
2023/10/14 16:42:59;;;;;;;;;;;20.60;59.60;;;;;;10228041;28;93454;-47
2023/10/14 16:48:07;;;;;;;;;;;20.70;61.60;;;;;;10234016;28;94590;-48
2023/10/14 16:53:10;;;;;;;;;;;20.90;62.20;;;;;;10234698;28;95820;-47
2023/10/14 16:58:11;;;;;;;;;;;21.10;61.20;;;;;;10226705;28;94877;-48
2023/10/14 17:03:15;;;;;;;;;;;21.20;61.70;;;;;;10229353;28;94011;-51
2023/10/14 17:08:17;;;;;;;;;;;21.20;62.30;;;;;;10225289;28;94189;-47
2023/10/14 17:13:19;;;;;;;;;;;21.30;61.20;;;;;;10222329;28;94527;-49
2023/10/14 17:18:21;;;;;;;;;;;21.40;60.70;;;;;;10223577;28;93462;-46
2023/10/14 17:23:23;;;;;;;;;;;21.40;60.60;;;;;;10212565;28;94395;-49
2023/10/14 17:28:24;;;;;;;;;;;21.40;60.30;;;;;;10220192;28;94384;-50
2023/10/14 17:33:26;;;;;;;;;;;21.30;60.20;;;;;;10227741;28;95090;-49
2023/10/14 17:38:28;;;;;;;;;;;21.30;60.10;;;;;;10230107;28;93984;-46
2023/10/14 17:43:31;;;;;;;;;;;21.20;60.20;;;;;;10220573;28;95831;-51
2023/10/14 17:48:33;;;;;;;;;;;21.20;60.60;;;;;;10232795;28;94738;-52
2023/10/14 17:53:35;;;;;;;;;;;21.20;60.40;;;;;;10236905;28;94105;-52
2023/10/14 17:58:38;;;;;;;;;;;21.10;60.70;;;;;;10239960;28;93478;-56
2023/10/14 18:03:42;;;;;;;;;;;21.10;60.60;;;;;;10230460;28;94335;-47
2023/10/14 18:08:45;;;;;;;;;;;21.00;60.40;;;;;;10225173;28;94259;-50
2023/10/14 18:13:47;;;;;;;;;;;21.00;60.60;;;;;;10197914;28;93726;-48
2023/10/14 18:18:49;;;;;;;;;;;21.00;60.60;;;;;;10214472;28;93760;-48
2023/10/14 18:23:51;;;;;;;;;;;20.90;60.70;;;;;;10228064;28;94533;-52
2023/10/14 18:28:53;;;;;;;;;;;20.90;60.80;;;;;;10215095;28;94551;-49
2023/10/14 18:33:57;;;;;;;;;;;20.90;60.80;;;;;;10209359;28;97238;-50
2023/10/14 18:38:58;;;;;;;;;;;20.90;60.90;;;;;;10229519;28;93051;-48
2023/10/14 18:44:01;;;;;;;;;;;20.90;61.10;;;;;;10210149;28;94311;-52
2023/10/14 18:49:03;;;;;;;;;;;20.90;61.10;;;;;;10235863;28;95043;-47
2023/10/14 18:54:06;;;;;;;;;;;20.80;61.10;;;;;;10216960;28;93926;-50
2023/10/14 18:59:08;;;;;;;;;;;20.90;60.90;;;;;;10209260;28;95445;-47
2023/10/14 19:04:12;;;;;;;;;;;20.80;60.90;;;;;;10229835;28;94419;-52
2023/10/14 19:09:14;;;;;;;;;;;20.80;60.90;;;;;;10226882;28;95482;-53
2023/10/14 19:14:17;;;;;;;;;;;20.80;60.40;;;;;;10213185;28;95757;-49
2023/10/14 19:19:20;;;;;;;;;;;20.80;60.60;;;;;;10223427;28;93435;-49
2023/10/14 19:24:25;;;;;;;;;;;20.80;60.80;;;;;;10226417;28;95840;-47
2023/10/14 19:29:27;;;;;;;;;;;20.80;60.90;;;;;;10233284;28;94550;-49
2023/10/14 19:34:29;;;;;;;;;;;20.80;60.80;;;;;;10212607;28;93902;-50
2023/10/14 19:39:30;;;;;;;;;;;20.80;60.80;;;;;;10240000;28;93900;-51
2023/10/14 19:44:33;;;;;;;;;;;20.80;60.70;;;;;;10231149;28;95033;-51
2023/10/14 19:49:35;;;;;;;;;;;20.80;60.80;;;;;;10226253;28;94518;-53
2023/10/14 19:54:53;;;;;;;;;;;20.70;60.90;;;;;;10234061;28;94442;-52
2023/10/14 19:59:55;;;;;;;;;;;20.70;60.70;;;;;;10235426;28;95178;-52
2023/10/14 20:04:57;;;;;;;;;;;20.70;60.90;;;;;;10222373;28;94447;-52
2023/10/14 20:09:59;;;;;;;;;;;20.70;61.00;;;;;;10239742;28;94628;-52
2023/10/14 20:15:06;;;;;;;;;;;20.70;61.00;;;;;;10227517;28;96936;-48
2023/10/14 20:20:16;;;;;;;;;;;20.60;61.00;;;;;;10225584;28;94154;-64
2023/10/14 20:25:19;;;;;;;;;;;20.60;61.00;;;;;;10222672;28;95627;-49
2023/10/14 20:30:21;;;;;;;;;;;20.60;61.00;;;;;;10239950;28;94538;-64
2023/10/14 20:35:31;;;;;;;;;;;20.60;61.10;;;;;;10229675;28;93560;-49
2023/10/14 20:40:35;;;;;;;;;;;20.60;61.20;;;;;;10212926;28;93803;-48
2023/10/14 20:45:39;;;;;;;;;;;20.60;61.00;;;;;;10229610;28;94452;-50
2023/10/14 20:50:42;;;;;;;;;;;20.60;60.80;;;;;;10235652;28;93948;-52
2023/10/14 20:55:46;;;;;;;;;;;20.60;60.60;;;;;;10237130;28;93957;-52
2023/10/14 21:00:49;;;;;;;;;;;20.50;60.60;;;;;;10232008;28;93456;-49
2023/10/14 21:05:53;;;;;;;;;;;20.50;60.50;;;;;;10227383;28;96826;-52
2023/10/14 21:10:55;;;;;;;;;;;20.40;60.40;;;;;;10228908;28;93485;-51
2023/10/14 21:16:01;;;;;;;;;;;20.40;60.50;;;;;;10228041;28;94973;-52
2023/10/14 21:21:09;;;;;;;;;;;20.40;60.50;;;;;;10244561;28;94320;-49
2023/10/14 21:26:12;;;;;;;;;;;20.30;60.40;;;;;;10242964;28;93313;-51
2023/10/14 21:31:16;;;;;;;;;;;20.30;60.50;;;;;;10249392;28;93330;-52
2023/10/14 21:36:20;;;;;;;;;;;20.30;60.50;;;;;;10238185;28;93351;-49
2023/10/14 21:41:22;;;;;;;;;;;20.30;60.40;;;;;;10249349;28;94024;-51
2023/10/14 21:46:25;;;;;;;;;;;20.30;60.20;;;;;;10222033;28;95066;-52
2023/10/14 21:51:30;;;;;;;;;;;20.20;60.20;;;;;;10247086;28;93459;-52
2023/10/14 21:56:31;;;;;;;;;;;20.20;60.20;;;;;;10241710;28;98477;-51
2023/10/14 22:01:35;;;;;;;;;;;20.20;60.20;;;;;;10245030;28;94544;-53
2023/10/14 22:06:38;;;;;;;;;;;20.20;60.20;;;;;;10238861;28;93781;-56
2023/10/14 22:11:42;;;;;;;;;;;20.20;60.20;;;;;;10238277;28;114072;-52
2023/10/14 22:16:43;;;;;;;;;;;20.20;60.20;;;;;;10211906;28;94211;-51
2023/10/14 22:21:45;;;;;;;;;;;20.20;60.20;;;;;;10232959;28;94548;-50
2023/10/14 22:26:48;;;;;;;;;;;20.20;60.30;;;;;;10231041;28;94742;-48
2023/10/14 22:31:49;;;;;;;;;;;20.20;60.20;;;;;;10237648;28;93682;-48
2023/10/14 22:36:51;;;;;;;;;;;20.10;60.10;;;;;;10236382;28;94807;-49
2023/10/14 22:41:54;;;;;;;;;;;20.10;60.10;;;;;;10246354;28;94621;-52
2023/10/14 22:46:56;;;;;;;;;;;20.10;60.10;;;;;;10237526;28;97087;-52
2023/10/14 22:51:58;;;;;;;;;;;20.10;60.10;;;;;;10244373;28;93718;-49
2023/10/14 22:57:00;;;;;;;;;;;20.20;60.10;;;;;;10223887;28;94831;-50
2023/10/14 23:02:05;;;;;;;;;;;20.10;60.00;;;;;;10230847;28;93444;-49
2023/10/14 23:07:08;;;;;;;;;;;20.10;60.10;;;;;;10231808;28;94476;-52
2023/10/14 23:12:09;;;;;;;;;;;20.10;60.20;;;;;;10216942;28;97608;-49
2023/10/14 23:17:12;;;;;;;;;;;20.10;60.20;;;;;;10210758;28;93543;-51
2023/10/14 23:22:14;;;;;;;;;;;20.10;60.10;;;;;;10240660;28;93995;-53
2023/10/14 23:27:16;;;;;;;;;;;20.10;60.10;;;;;;10235890;28;94943;-52
2023/10/14 23:32:18;;;;;;;;;;;20.10;60.10;;;;;;10239329;28;94489;-48
2023/10/14 23:37:21;;;;;;;;;;;20.10;60.10;;;;;;10237918;28;95861;-53
2023/10/14 23:42:24;;;;;;;;;;;20.10;60.10;;;;;;10240906;28;94443;-51
2023/10/14 23:47:27;;;;;;;;;;;20.10;60.10;;;;;;10244706;28;93468;-52
2023/10/14 23:52:29;;;;;;;;;;;20.00;60.00;;;;;;10233936;28;94385;-49
2023/10/14 23:57:31;;;;;;;;;;;20.00;60.00;;;;;;10242557;28;94294;-52
